Terminal Aerodrome Forecast
Issued by NWS

Home | Current Version | Previous Version | Text Only | Print | Product List | Glossary On
Versions: 1 2 3 4 5 6 7 8 9 10 11 12 13
168
FTUS45 KTFX 201731
TAFHLN
TAF
KHLN 201731Z 2018/2118 28010KT P6SM SKC
     FM201900 28010G20KT P6SM SKC
     FM210400 28008KT P6SM FEW080=

USA.gov is the U.S. government's official web portal to all federal, state and local government web resources and services.